Details From KUES - Waukesha Co
To KRYV - Watertown Muni
Flight Number -
Tags Routegen Generated
Created
Modified
Stats Distance 28 nm / 52 km
Max Altitude 100 ft / 30 m
Waypoints 5
Social Downloads 0
Likes 0
Share VATSIM

Download

Looking for another format? Having issues loading an existing format? Contact us
Advertisement - Login to hide

Notes

Departing runway 28 KUES. Arriving runway 5 KRYV.

Route

KUES +43.06_-088.35 +43.16_-088.45 +43.26_-088.56 KRYV

ID Type Via Altitude (ft/m) Position (lat/lon) Dist (leg/tot) Name
O KUES APT - 0 / 0 43.04394 / -88.24972 - / 0 nm
+43.06_-088.35 DME - 100 / 30 43.05895 / -88.34660 4 / 4 nm
+43.16_-088.45 DME - 100 / 30 43.15912 / -88.45257 7 / 11 nm
+43.26_-088.56 DME - 100 / 30 43.25929 / -88.55855 7 / 19 nm
O KRYV APT - 0 / 0 43.17250 / -88.71747 8 / 28 nm Watertown Muni

Altitude Profile

Advertisement - Login to hide

KUES

Details ICAO KUES
Name Waukesha Co
Region United States
Timezone America/Chicago (UTC-6.0)
Stats Elevation 911 ft / 278 m (AMSL)
Location 43.040600° -88.236500°
Runways 2
Magnetic Variation 3.693° W

METAR

KUES 092345Z 26004KT 5SM BR SKC M08/M09 A3032

Decode

TAF

TAF KUES 092344Z 1000/1024 VRB04KT 5SM BR FEW007 FM101000 26005KT 4SM BR BKN007 FM101500 25006KT P6SM SCT007

Decode

Departure Runways

ID Width Length Bearing (true/mag) Surface Threshold Overrun Markings Lighting
10 98 ft / 30 m 5,837 ft / 1,779 m 101.99° / 105.68° CONCRETE 0 ft / 0 m 0 ft / 0 m PREC-APP EDGE THRESHOLD SALS REIL-OMNI
18 75 ft / 23 m 3,602 ft / 1,098 m 185.25° / 188.94° ASPHALT 0 ft / 0 m 0 ft / 0 m APP EDGE THRESHOLD
28 98 ft / 30 m 5,837 ft / 1,779 m 282.00° / 285.70° CONCRETE 0 ft / 0 m 0 ft / 0 m PREC-APP EDGE THRESHOLD REIL-OMNI
36 75 ft / 23 m 3,602 ft / 1,098 m 5.25° / 8.94° ASPHALT 0 ft / 0 m 0 ft / 0 m APP EDGE THRESHOLD

KRYV

Details ICAO KRYV
Name Watertown Muni
Region United States
Timezone America/Chicago (UTC-6.0)
Stats Elevation 833 ft / 254 m (AMSL)
Location 43.169800° -88.722900°
Runways 2
Magnetic Variation 3.323° W

METAR

KRYV 100035Z AUTO 00000KT 7SM CLR M09/M09 A3031 RMK AO2 T10901090

Decode

TAF

Not found

Destination Runways

ID Width Length Bearing (true/mag) Surface Threshold Overrun Markings Lighting
05 75 ft / 23 m 4,425 ft / 1,349 m 53.09° / 56.41° ASPHALT 200 ft / 61 m 400 ft / 122 m APP EDGE THRESHOLD REIL-OMNI
11 75 ft / 23 m 2,817 ft / 859 m 113.31° / 116.63° ASPHALT 0 ft / 0 m 0 ft / 0 m APP EDGE THRESHOLD
23 75 ft / 23 m 4,425 ft / 1,349 m 233.10° / 236.42° ASPHALT 0 ft / 0 m 400 ft / 122 m APP EDGE THRESHOLD REIL-OMNI
29 75 ft / 23 m 2,817 ft / 859 m 293.32° / 296.64° ASPHALT 0 ft / 0 m 0 ft / 0 m APP EDGE THRESHOLD